sensor_id;sensor_type;location;lat;lon;timestamp;temperature;humidity
24448;DHT22;13348;50.984;5.822;2023-10-19T00:02:05;14.40;99.90
24448;DHT22;13348;50.984;5.822;2023-10-19T00:04:33;14.60;99.90
24448;DHT22;13348;50.984;5.822;2023-10-19T00:07:01;14.70;99.90
24448;DHT22;13348;50.984;5.822;2023-10-19T00:09:30;14.80;99.90
24448;DHT22;13348;50.984;5.822;2023-10-19T00:12:03;14.80;99.90
24448;DHT22;13348;50.984;5.822;2023-10-19T00:14:31;14.90;99.90
24448;DHT22;13348;50.984;5.822;2023-10-19T00:16:57;14.90;99.90
24448;DHT22;13348;50.984;5.822;2023-10-19T00:19:31;14.70;99.90
24448;DHT22;13348;50.984;5.822;2023-10-19T00:22:04;14.70;99.90
24448;DHT22;13348;50.984;5.822;2023-10-19T00:24:41;14.80;99.90
24448;DHT22;13348;50.984;5.822;2023-10-19T00:27:07;14.90;99.90
24448;DHT22;13348;50.984;5.822;2023-10-19T00:29:41;15.00;99.90
24448;DHT22;13348;50.984;5.822;2023-10-19T00:32:13;15.00;99.90
24448;DHT22;13348;50.984;5.822;2023-10-19T00:34:40;15.00;99.90
24448;DHT22;13348;50.984;5.822;2023-10-19T00:37:10;15.00;99.90
24448;DHT22;13348;50.984;5.822;2023-10-19T00:39:44;15.10;99.90
24448;DHT22;13348;50.984;5.822;2023-10-19T00:42:19;15.10;99.90
24448;DHT22;13348;50.984;5.822;2023-10-19T00:44:50;15.20;99.90
24448;DHT22;13348;50.984;5.822;2023-10-19T00:47:26;15.30;99.90
24448;DHT22;13348;50.984;5.822;2023-10-19T00:49:59;15.20;99.90
24448;DHT22;13348;50.984;5.822;2023-10-19T00:52:32;15.30;99.90
24448;DHT22;13348;50.984;5.822;2023-10-19T00:55:09;15.30;99.90
24448;DHT22;13348;50.984;5.822;2023-10-19T00:57:38;15.30;99.90
24448;DHT22;13348;50.984;5.822;2023-10-19T01:00:08;15.50;99.90
24448;DHT22;13348;50.984;5.822;2023-10-19T01:02:38;15.50;99.90
24448;DHT22;13348;50.984;5.822;2023-10-19T01:05:09;15.40;99.90
24448;DHT22;13348;50.984;5.822;2023-10-19T01:07:40;15.40;99.90
24448;DHT22;13348;50.984;5.822;2023-10-19T01:10:07;15.60;99.90
24448;DHT22;13348;50.984;5.822;2023-10-19T01:12:37;15.60;99.90
24448;DHT22;13348;50.984;5.822;2023-10-19T01:15:06;15.70;99.90
24448;DHT22;13348;50.984;5.822;2023-10-19T01:17:35;15.70;99.90
24448;DHT22;13348;50.984;5.822;2023-10-19T01:20:08;15.80;99.90
24448;DHT22;13348;50.984;5.822;2023-10-19T01:22:50;15.90;99.90
24448;DHT22;13348;50.984;5.822;2023-10-19T01:25:19;16.00;99.90
24448;DHT22;13348;50.984;5.822;2023-10-19T01:27:50;16.10;99.90
24448;DHT22;13348;50.984;5.822;2023-10-19T01:30:23;16.10;99.90
24448;DHT22;13348;50.984;5.822;2023-10-19T01:32:52;16.00;99.90
24448;DHT22;13348;50.984;5.822;2023-10-19T01:35:19;16.10;99.90
24448;DHT22;13348;50.984;5.822;2023-10-19T01:37:46;16.10;99.90
24448;DHT22;13348;50.984;5.822;2023-10-19T01:40:13;16.10;99.90
24448;DHT22;13348;50.984;5.822;2023-10-19T01:42:46;16.10;99.90
24448;DHT22;13348;50.984;5.822;2023-10-19T01:45:11;16.10;99.90
24448;DHT22;13348;50.984;5.822;2023-10-19T01:47:39;16.10;99.90
24448;DHT22;13348;50.984;5.822;2023-10-19T01:50:06;16.20;99.90
24448;DHT22;13348;50.984;5.822;2023-10-19T01:52:45;16.20;99.90
24448;DHT22;13348;50.984;5.822;2023-10-19T01:55:13;16.20;99.90
24448;DHT22;13348;50.984;5.822;2023-10-19T01:57:46;16.20;99.90
24448;DHT22;13348;50.984;5.822;2023-10-19T02:00:15;16.20;99.90
24448;DHT22;13348;50.984;5.822;2023-10-19T02:02:48;16.20;99.90
24448;DHT22;13348;50.984;5.822;2023-10-19T02:05:15;16.10;99.90
24448;DHT22;13348;50.984;5.822;2023-10-19T02:07:44;16.00;99.90
24448;DHT22;13348;50.984;5.822;2023-10-19T02:10:10;16.00;99.90
24448;DHT22;13348;50.984;5.822;2023-10-19T02:12:39;15.90;99.90
24448;DHT22;13348;50.984;5.822;2023-10-19T02:15:07;16.00;99.90
24448;DHT22;13348;50.984;5.822;2023-10-19T02:17:34;15.90;99.90
24448;DHT22;13348;50.984;5.822;2023-10-19T02:20:00;15.90;99.90
24448;DHT22;13348;50.984;5.822;2023-10-19T02:22:28;15.90;99.90
24448;DHT22;13348;50.984;5.822;2023-10-19T02:24:54;16.00;99.90
24448;DHT22;13348;50.984;5.822;2023-10-19T02:27:21;16.00;99.90
24448;DHT22;13348;50.984;5.822;2023-10-19T02:29:49;16.20;99.90
24448;DHT22;13348;50.984;5.822;2023-10-19T02:32:16;16.30;99.90
24448;DHT22;13348;50.984;5.822;2023-10-19T02:34:44;16.20;99.90
24448;DHT22;13348;50.984;5.822;2023-10-19T02:37:12;16.20;99.90
24448;DHT22;13348;50.984;5.822;2023-10-19T02:39:38;16.10;99.90
24448;DHT22;13348;50.984;5.822;2023-10-19T02:42:05;16.20;99.90
24448;DHT22;13348;50.984;5.822;2023-10-19T02:44:31;16.20;99.90
24448;DHT22;13348;50.984;5.822;2023-10-19T02:47:00;16.20;99.90
24448;DHT22;13348;50.984;5.822;2023-10-19T02:49:31;16.20;99.90
24448;DHT22;13348;50.984;5.822;2023-10-19T02:52:03;16.20;99.90
24448;DHT22;13348;50.984;5.822;2023-10-19T02:54:30;16.20;99.90
24448;DHT22;13348;50.984;5.822;2023-10-19T02:56:58;16.10;99.90
24448;DHT22;13348;50.984;5.822;2023-10-19T02:59:24;16.10;99.90
24448;DHT22;13348;50.984;5.822;2023-10-19T03:01:54;16.10;99.90
24448;DHT22;13348;50.984;5.822;2023-10-19T03:04:28;16.10;99.90
24448;DHT22;13348;50.984;5.822;2023-10-19T03:06:54;16.10;99.90
24448;DHT22;13348;50.984;5.822;2023-10-19T03:09:21;16.20;99.90
24448;DHT22;13348;50.984;5.822;2023-10-19T03:11:54;16.10;99.90
24448;DHT22;13348;50.984;5.822;2023-10-19T03:14:25;16.00;99.90
24448;DHT22;13348;50.984;5.822;2023-10-19T03:16:51;15.90;99.90
24448;DHT22;13348;50.984;5.822;2023-10-19T03:19:20;15.80;99.90
24448;DHT22;13348;50.984;5.822;2023-10-19T03:21:47;15.70;99.90
24448;DHT22;13348;50.984;5.822;2023-10-19T03:24:15;15.70;99.90
24448;DHT22;13348;50.984;5.822;2023-10-19T03:26:48;15.70;99.90
24448;DHT22;13348;50.984;5.822;2023-10-19T03:29:15;15.60;99.90
24448;DHT22;13348;50.984;5.822;2023-10-19T03:31:47;15.60;99.90
24448;DHT22;13348;50.984;5.822;2023-10-19T03:34:14;15.50;99.90
24448;DHT22;13348;50.984;5.822;2023-10-19T03:36:42;15.50;99.90
24448;DHT22;13348;50.984;5.822;2023-10-19T03:39:10;15.50;99.90
24448;DHT22;13348;50.984;5.822;2023-10-19T03:41:41;15.40;99.90
24448;DHT22;13348;50.984;5.822;2023-10-19T03:44:09;15.30;99.90
24448;DHT22;13348;50.984;5.822;2023-10-19T03:46:45;15.30;99.90
24448;DHT22;13348;50.984;5.822;2023-10-19T03:49:22;15.30;99.90
24448;DHT22;13348;50.984;5.822;2023-10-19T03:51:52;15.30;99.90
24448;DHT22;13348;50.984;5.822;2023-10-19T03:54:27;15.40;99.90
24448;DHT22;13348;50.984;5.822;2023-10-19T03:56:54;15.40;99.90
24448;DHT22;13348;50.984;5.822;2023-10-19T03:59:22;15.40;99.90
24448;DHT22;13348;50.984;5.822;2023-10-19T04:01:55;15.40;99.90
24448;DHT22;13348;50.984;5.822;2023-10-19T04:04:25;15.40;99.90
24448;DHT22;13348;50.984;5.822;2023-10-19T04:06:54;15.40;99.90
24448;DHT22;13348;50.984;5.822;2023-10-19T04:09:24;15.40;99.90
24448;DHT22;13348;50.984;5.822;2023-10-19T04:11:55;15.50;99.90
24448;DHT22;13348;50.984;5.822;2023-10-19T04:14:23;15.60;99.90
24448;DHT22;13348;50.984;5.822;2023-10-19T04:16:50;15.60;99.90
24448;DHT22;13348;50.984;5.822;2023-10-19T04:19:17;15.60;99.90
24448;DHT22;13348;50.984;5.822;2023-10-19T04:21:44;15.80;99.90
24448;DHT22;13348;50.984;5.822;2023-10-19T04:24:12;15.60;99.90
24448;DHT22;13348;50.984;5.822;2023-10-19T04:26:39;15.50;99.90
24448;DHT22;13348;50.984;5.822;2023-10-19T04:29:09;15.40;99.90
24448;DHT22;13348;50.984;5.822;2023-10-19T04:31:37;15.30;99.90
24448;DHT22;13348;50.984;5.822;2023-10-19T04:34:08;15.40;99.90
24448;DHT22;13348;50.984;5.822;2023-10-19T04:36:35;15.60;99.90
24448;DHT22;13348;50.984;5.822;2023-10-19T04:39:02;15.70;99.90
24448;DHT22;13348;50.984;5.822;2023-10-19T04:41:29;15.70;99.90
24448;DHT22;13348;50.984;5.822;2023-10-19T04:43:56;15.60;99.90
24448;DHT22;13348;50.984;5.822;2023-10-19T04:46:25;15.70;99.90
24448;DHT22;13348;50.984;5.822;2023-10-19T04:48:54;15.80;99.90
24448;DHT22;13348;50.984;5.822;2023-10-19T04:51:21;15.50;99.90
24448;DHT22;13348;50.984;5.822;2023-10-19T04:53:48;15.50;99.90
24448;DHT22;13348;50.984;5.822;2023-10-19T04:56:15;15.50;99.90
24448;DHT22;13348;50.984;5.822;2023-10-19T04:58:42;15.50;99.90
24448;DHT22;13348;50.984;5.822;2023-10-19T05:01:08;15.40;99.90
24448;DHT22;13348;50.984;5.822;2023-10-19T05:03:38;15.40;99.90
24448;DHT22;13348;50.984;5.822;2023-10-19T05:06:05;15.60;99.90
24448;DHT22;13348;50.984;5.822;2023-10-19T05:08:32;15.60;99.90
24448;DHT22;13348;50.984;5.822;2023-10-19T05:10:59;15.40;99.90
24448;DHT22;13348;50.984;5.822;2023-10-19T05:13:26;15.50;99.90
24448;DHT22;13348;50.984;5.822;2023-10-19T05:15:53;15.50;99.90
24448;DHT22;13348;50.984;5.822;2023-10-19T05:18:20;15.50;99.90
24448;DHT22;13348;50.984;5.822;2023-10-19T05:20:48;15.40;99.90
24448;DHT22;13348;50.984;5.822;2023-10-19T05:23:21;15.40;99.90
24448;DHT22;13348;50.984;5.822;2023-10-19T05:25:48;15.30;99.90
24448;DHT22;13348;50.984;5.822;2023-10-19T05:28:14;15.30;99.90
24448;DHT22;13348;50.984;5.822;2023-10-19T05:30:41;15.20;99.90
24448;DHT22;13348;50.984;5.822;2023-10-19T05:33:08;15.10;99.90
24448;DHT22;13348;50.984;5.822;2023-10-19T05:35:36;15.00;99.90
24448;DHT22;13348;50.984;5.822;2023-10-19T05:38:07;15.10;99.90
24448;DHT22;13348;50.984;5.822;2023-10-19T05:40:34;15.10;99.90
24448;DHT22;13348;50.984;5.822;2023-10-19T05:43:01;15.10;99.90
24448;DHT22;13348;50.984;5.822;2023-10-19T05:45:28;15.00;99.90
24448;DHT22;13348;50.984;5.822;2023-10-19T05:47:55;15.10;99.90
24448;DHT22;13348;50.984;5.822;2023-10-19T05:50:22;15.10;99.90
24448;DHT22;13348;50.984;5.822;2023-10-19T05:52:49;15.10;99.90
24448;DHT22;13348;50.984;5.822;2023-10-19T05:55:18;15.20;99.90
24448;DHT22;13348;50.984;5.822;2023-10-19T05:57:47;15.20;99.90
24448;DHT22;13348;50.984;5.822;2023-10-19T06:00:14;15.20;99.90
24448;DHT22;13348;50.984;5.822;2023-10-19T06:02:43;15.10;99.90
24448;DHT22;13348;50.984;5.822;2023-10-19T06:05:11;15.10;99.90
24448;DHT22;13348;50.984;5.822;2023-10-19T06:07:40;15.00;99.90
24448;DHT22;13348;50.984;5.822;2023-10-19T06:10:08;15.00;99.90
24448;DHT22;13348;50.984;5.822;2023-10-19T06:12:36;15.00;99.90
24448;DHT22;13348;50.984;5.822;2023-10-19T06:15:04;14.90;99.90
24448;DHT22;13348;50.984;5.822;2023-10-19T06:17:30;14.90;99.90
24448;DHT22;13348;50.984;5.822;2023-10-19T06:19:58;14.90;99.90
24448;DHT22;13348;50.984;5.822;2023-10-19T06:22:25;14.90;99.90
24448;DHT22;13348;50.984;5.822;2023-10-19T06:24:54;14.80;99.90
24448;DHT22;13348;50.984;5.822;2023-10-19T06:27:20;14.80;99.90
24448;DHT22;13348;50.984;5.822;2023-10-19T06:29:50;14.80;99.90
24448;DHT22;13348;50.984;5.822;2023-10-19T06:32:16;14.70;99.90
24448;DHT22;13348;50.984;5.822;2023-10-19T06:34:43;14.70;99.90
24448;DHT22;13348;50.984;5.822;2023-10-19T06:37:11;14.80;99.90
24448;DHT22;13348;50.984;5.822;2023-10-19T06:39:38;14.90;99.90
24448;DHT22;13348;50.984;5.822;2023-10-19T06:42:07;14.80;99.90
24448;DHT22;13348;50.984;5.822;2023-10-19T06:44:40;14.80;99.90
24448;DHT22;13348;50.984;5.822;2023-10-19T06:47:09;15.00;99.90
24448;DHT22;13348;50.984;5.822;2023-10-19T06:49:36;15.00;99.90
24448;DHT22;13348;50.984;5.822;2023-10-19T06:52:03;15.00;99.90
24448;DHT22;13348;50.984;5.822;2023-10-19T06:54:31;15.10;99.90
24448;DHT22;13348;50.984;5.822;2023-10-19T06:56:58;15.20;99.90
24448;DHT22;13348;50.984;5.822;2023-10-19T06:59:28;15.30;99.90
24448;DHT22;13348;50.984;5.822;2023-10-19T07:01:58;15.40;99.90
24448;DHT22;13348;50.984;5.822;2023-10-19T07:04:28;15.40;99.90
24448;DHT22;13348;50.984;5.822;2023-10-19T07:06:55;15.40;99.90
24448;DHT22;13348;50.984;5.822;2023-10-19T07:09:22;15.50;99.90
24448;DHT22;13348;50.984;5.822;2023-10-19T07:11:49;15.60;99.90
24448;DHT22;13348;50.984;5.822;2023-10-19T07:14:19;15.50;99.90
24448;DHT22;13348;50.984;5.822;2023-10-19T07:16:47;15.60;99.90
24448;DHT22;13348;50.984;5.822;2023-10-19T07:19:14;15.60;99.90
24448;DHT22;13348;50.984;5.822;2023-10-19T07:21:43;15.60;99.90
24448;DHT22;13348;50.984;5.822;2023-10-19T07:24:14;15.60;99.90
24448;DHT22;13348;50.984;5.822;2023-10-19T07:26:44;15.70;99.90
24448;DHT22;13348;50.984;5.822;2023-10-19T07:29:19;15.70;99.90
24448;DHT22;13348;50.984;5.822;2023-10-19T07:31:46;15.70;99.90
24448;DHT22;13348;50.984;5.822;2023-10-19T07:34:14;15.70;99.90
24448;DHT22;13348;50.984;5.822;2023-10-19T07:36:43;15.70;99.90
24448;DHT22;13348;50.984;5.822;2023-10-19T07:39:09;15.70;99.90
24448;DHT22;13348;50.984;5.822;2023-10-19T07:41:44;15.80;99.90
24448;DHT22;13348;50.984;5.822;2023-10-19T07:44:11;15.80;99.90
24448;DHT22;13348;50.984;5.822;2023-10-19T07:46:38;15.80;99.90
24448;DHT22;13348;50.984;5.822;2023-10-19T07:49:05;15.80;99.90
24448;DHT22;13348;50.984;5.822;2023-10-19T07:51:33;15.90;99.90
24448;DHT22;13348;50.984;5.822;2023-10-19T07:54:01;16.10;99.90
24448;DHT22;13348;50.984;5.822;2023-10-19T07:56:28;16.20;99.90
24448;DHT22;13348;50.984;5.822;2023-10-19T07:58:56;16.30;99.90
24448;DHT22;13348;50.984;5.822;2023-10-19T08:01:22;16.40;99.90
24448;DHT22;13348;50.984;5.822;2023-10-19T08:03:49;16.30;99.90
24448;DHT22;13348;50.984;5.822;2023-10-19T08:06:17;16.30;99.90
24448;DHT22;13348;50.984;5.822;2023-10-19T08:08:44;16.20;99.90
24448;DHT22;13348;50.984;5.822;2023-10-19T08:11:13;16.10;99.90
24448;DHT22;13348;50.984;5.822;2023-10-19T08:13:40;16.10;99.90
24448;DHT22;13348;50.984;5.822;2023-10-19T08:16:07;16.10;99.90
24448;DHT22;13348;50.984;5.822;2023-10-19T08:18:34;16.10;99.90
24448;DHT22;13348;50.984;5.822;2023-10-19T08:21:01;16.20;99.90
24448;DHT22;13348;50.984;5.822;2023-10-19T08:23:28;16.30;99.90
24448;DHT22;13348;50.984;5.822;2023-10-19T08:25:57;16.30;99.90
24448;DHT22;13348;50.984;5.822;2023-10-19T08:28:26;16.50;99.90
24448;DHT22;13348;50.984;5.822;2023-10-19T08:30:53;16.60;99.90
24448;DHT22;13348;50.984;5.822;2023-10-19T08:33:23;16.60;99.90
24448;DHT22;13348;50.984;5.822;2023-10-19T08:35:52;16.80;99.90
24448;DHT22;13348;50.984;5.822;2023-10-19T08:38:20;16.80;99.90
24448;DHT22;13348;50.984;5.822;2023-10-19T08:40:47;17.00;99.90
24448;DHT22;13348;50.984;5.822;2023-10-19T08:43:14;16.90;99.90
24448;DHT22;13348;50.984;5.822;2023-10-19T08:45:45;17.00;99.90
24448;DHT22;13348;50.984;5.822;2023-10-19T08:48:12;17.00;99.90
24448;DHT22;13348;50.984;5.822;2023-10-19T08:50:39;17.00;99.90
24448;DHT22;13348;50.984;5.822;2023-10-19T08:53:07;17.20;99.90
24448;DHT22;13348;50.984;5.822;2023-10-19T08:55:34;17.30;99.90
24448;DHT22;13348;50.984;5.822;2023-10-19T08:58:02;17.50;99.90
24448;DHT22;13348;50.984;5.822;2023-10-19T09:00:42;17.80;99.90
24448;DHT22;13348;50.984;5.822;2023-10-19T09:03:11;17.90;99.90
24448;DHT22;13348;50.984;5.822;2023-10-19T09:05:39;17.70;99.90
24448;DHT22;13348;50.984;5.822;2023-10-19T09:08:06;17.80;99.90
24448;DHT22;13348;50.984;5.822;2023-10-19T09:10:35;17.70;99.90
24448;DHT22;13348;50.984;5.822;2023-10-19T09:13:03;17.70;99.90
24448;DHT22;13348;50.984;5.822;2023-10-19T09:15:30;17.70;99.90
24448;DHT22;13348;50.984;5.822;2023-10-19T09:18:00;17.70;99.90
24448;DHT22;13348;50.984;5.822;2023-10-19T09:20:40;17.70;99.90
24448;DHT22;13348;50.984;5.822;2023-10-19T09:23:07;17.60;99.90
24448;DHT22;13348;50.984;5.822;2023-10-19T09:25:34;17.70;99.90
24448;DHT22;13348;50.984;5.822;2023-10-19T09:28:01;17.70;99.90
24448;DHT22;13348;50.984;5.822;2023-10-19T09:30:29;17.70;99.90
24448;DHT22;13348;50.984;5.822;2023-10-19T09:32:56;17.70;99.90
24448;DHT22;13348;50.984;5.822;2023-10-19T09:35:23;17.90;99.90
24448;DHT22;13348;50.984;5.822;2023-10-19T09:37:54;17.90;99.90
24448;DHT22;13348;50.984;5.822;2023-10-19T09:40:22;17.90;99.90
24448;DHT22;13348;50.984;5.822;2023-10-19T09:42:49;17.90;99.90
24448;DHT22;13348;50.984;5.822;2023-10-19T09:45:19;18.00;99.90
24448;DHT22;13348;50.984;5.822;2023-10-19T09:47:50;18.20;99.90
24448;DHT22;13348;50.984;5.822;2023-10-19T09:50:17;18.20;99.90
24448;DHT22;13348;50.984;5.822;2023-10-19T09:52:44;18.30;99.90
24448;DHT22;13348;50.984;5.822;2023-10-19T09:55:14;18.40;99.90
24448;DHT22;13348;50.984;5.822;2023-10-19T09:57:46;18.70;99.90
24448;DHT22;13348;50.984;5.822;2023-10-19T10:00:15;19.30;99.90
24448;DHT22;13348;50.984;5.822;2023-10-19T10:02:49;19.70;99.90
24448;DHT22;13348;50.984;5.822;2023-10-19T10:05:44;20.00;99.90
24448;DHT22;13348;50.984;5.822;2023-10-19T10:08:30;20.10;99.90
24448;DHT22;13348;50.984;5.822;2023-10-19T10:10:59;20.20;99.90
24448;DHT22;13348;50.984;5.822;2023-10-19T10:13:41;20.10;99.90
24448;DHT22;13348;50.984;5.822;2023-10-19T10:16:07;20.20;99.90
24448;DHT22;13348;50.984;5.822;2023-10-19T10:18:35;20.10;99.90
24448;DHT22;13348;50.984;5.822;2023-10-19T10:21:05;19.60;99.90
24448;DHT22;13348;50.984;5.822;2023-10-19T10:23:37;19.40;99.90
24448;DHT22;13348;50.984;5.822;2023-10-19T10:26:08;19.30;99.90
24448;DHT22;13348;50.984;5.822;2023-10-19T10:28:35;19.20;99.90
24448;DHT22;13348;50.984;5.822;2023-10-19T10:31:16;19.20;99.90
24448;DHT22;13348;50.984;5.822;2023-10-19T10:33:46;19.20;99.90
24448;DHT22;13348;50.984;5.822;2023-10-19T10:36:14;19.20;99.90
24448;DHT22;13348;50.984;5.822;2023-10-19T10:38:42;19.20;99.90
24448;DHT22;13348;50.984;5.822;2023-10-19T10:41:10;19.20;99.90
24448;DHT22;13348;50.984;5.822;2023-10-19T10:43:51;19.20;99.90
24448;DHT22;13348;50.984;5.822;2023-10-19T10:46:19;19.30;99.90
24448;DHT22;13348;50.984;5.822;2023-10-19T10:48:46;19.50;99.90
24448;DHT22;13348;50.984;5.822;2023-10-19T10:51:14;19.60;99.90
24448;DHT22;13348;50.984;5.822;2023-10-19T10:53:41;19.90;99.90
24448;DHT22;13348;50.984;5.822;2023-10-19T10:56:08;20.20;99.90
24448;DHT22;13348;50.984;5.822;2023-10-19T10:58:36;20.40;99.90
24448;DHT22;13348;50.984;5.822;2023-10-19T11:01:03;21.40;99.90
24448;DHT22;13348;50.984;5.822;2023-10-19T11:03:30;21.80;99.90
24448;DHT22;13348;50.984;5.822;2023-10-19T11:06:02;21.80;99.90
24448;DHT22;13348;50.984;5.822;2023-10-19T11:08:29;22.50;99.90
24448;DHT22;13348;50.984;5.822;2023-10-19T11:11:01;22.90;99.90
24448;DHT22;13348;50.984;5.822;2023-10-19T11:13:30;22.90;99.90
24448;DHT22;13348;50.984;5.822;2023-10-19T11:16:00;22.20;99.90
24448;DHT22;13348;50.984;5.822;2023-10-19T11:18:28;21.50;99.90
24448;DHT22;13348;50.984;5.822;2023-10-19T11:20:55;20.90;99.90
24448;DHT22;13348;50.984;5.822;2023-10-19T11:23:34;20.70;99.90
24448;DHT22;13348;50.984;5.822;2023-10-19T11:26:01;20.70;99.90
24448;DHT22;13348;50.984;5.822;2023-10-19T11:28:30;20.50;99.90
24448;DHT22;13348;50.984;5.822;2023-10-19T11:31:11;20.30;99.90
24448;DHT22;13348;50.984;5.822;2023-10-19T11:33:39;20.30;99.90
24448;DHT22;13348;50.984;5.822;2023-10-19T11:36:07;20.20;99.90
24448;DHT22;13348;50.984;5.822;2023-10-19T11:38:34;20.30;99.90
24448;DHT22;13348;50.984;5.822;2023-10-19T11:41:01;20.30;99.90
24448;DHT22;13348;50.984;5.822;2023-10-19T11:43:28;20.30;99.90
24448;DHT22;13348;50.984;5.822;2023-10-19T11:45:56;20.30;99.90
24448;DHT22;13348;50.984;5.822;2023-10-19T11:48:25;20.40;99.90
24448;DHT22;13348;50.984;5.822;2023-10-19T11:50:52;20.40;99.90
24448;DHT22;13348;50.984;5.822;2023-10-19T11:53:19;20.40;99.90
24448;DHT22;13348;50.984;5.822;2023-10-19T11:55:46;20.20;99.90
24448;DHT22;13348;50.984;5.822;2023-10-19T11:58:14;20.20;99.90
24448;DHT22;13348;50.984;5.822;2023-10-19T12:00:41;20.10;99.90
24448;DHT22;13348;50.984;5.822;2023-10-19T12:03:09;20.10;99.90
24448;DHT22;13348;50.984;5.822;2023-10-19T12:05:37;20.00;99.90
24448;DHT22;13348;50.984;5.822;2023-10-19T12:08:05;20.00;99.90
24448;DHT22;13348;50.984;5.822;2023-10-19T12:10:32;19.90;99.90
24448;DHT22;13348;50.984;5.822;2023-10-19T12:13:01;19.80;99.90
24448;DHT22;13348;50.984;5.822;2023-10-19T12:15:29;19.80;99.90
24448;DHT22;13348;50.984;5.822;2023-10-19T12:17:56;19.70;99.90
24448;DHT22;13348;50.984;5.822;2023-10-19T12:20:23;19.60;99.90
24448;DHT22;13348;50.984;5.822;2023-10-19T12:22:51;19.60;99.90
24448;DHT22;13348;50.984;5.822;2023-10-19T12:25:19;19.50;99.90
24448;DHT22;13348;50.984;5.822;2023-10-19T12:27:46;19.50;99.90
24448;DHT22;13348;50.984;5.822;2023-10-19T12:30:14;19.40;99.90
24448;DHT22;13348;50.984;5.822;2023-10-19T12:32:45;19.50;99.90
24448;DHT22;13348;50.984;5.822;2023-10-19T12:35:15;19.40;99.90
24448;DHT22;13348;50.984;5.822;2023-10-19T12:37:45;19.20;99.90
24448;DHT22;13348;50.984;5.822;2023-10-19T12:40:18;19.10;99.90
24448;DHT22;13348;50.984;5.822;2023-10-19T12:42:55;19.10;99.90
24448;DHT22;13348;50.984;5.822;2023-10-19T12:45:23;18.90;99.90
24448;DHT22;13348;50.984;5.822;2023-10-19T12:47:51;18.50;99.90
24448;DHT22;13348;50.984;5.822;2023-10-19T12:50:18;18.20;99.90
24448;DHT22;13348;50.984;5.822;2023-10-19T12:52:48;17.80;99.90
24448;DHT22;13348;50.984;5.822;2023-10-19T12:55:15;17.50;99.90
24448;DHT22;13348;50.984;5.822;2023-10-19T12:57:44;17.20;99.90
24448;DHT22;13348;50.984;5.822;2023-10-19T13:00:11;17.00;99.90
24448;DHT22;13348;50.984;5.822;2023-10-19T13:02:51;16.80;99.90
24448;DHT22;13348;50.984;5.822;2023-10-19T13:05:25;16.70;99.90
24448;DHT22;13348;50.984;5.822;2023-10-19T13:07:53;16.60;99.90
24448;DHT22;13348;50.984;5.822;2023-10-19T13:10:27;16.50;99.90
24448;DHT22;13348;50.984;5.822;2023-10-19T13:12:56;16.50;99.90
24448;DHT22;13348;50.984;5.822;2023-10-19T13:15:23;16.40;99.90
24448;DHT22;13348;50.984;5.822;2023-10-19T13:17:54;16.40;99.90
24448;DHT22;13348;50.984;5.822;2023-10-19T13:20:20;16.40;99.90
24448;DHT22;13348;50.984;5.822;2023-10-19T13:22:49;16.40;99.90
24448;DHT22;13348;50.984;5.822;2023-10-19T13:25:16;16.40;99.90
24448;DHT22;13348;50.984;5.822;2023-10-19T13:27:43;16.40;99.90
24448;DHT22;13348;50.984;5.822;2023-10-19T13:30:12;16.40;99.90
24448;DHT22;13348;50.984;5.822;2023-10-19T13:32:40;16.50;99.90
24448;DHT22;13348;50.984;5.822;2023-10-19T13:35:08;16.40;99.90
24448;DHT22;13348;50.984;5.822;2023-10-19T13:37:35;16.40;99.90
24448;DHT22;13348;50.984;5.822;2023-10-19T13:40:03;16.20;99.90
24448;DHT22;13348;50.984;5.822;2023-10-19T13:42:32;16.20;99.90
24448;DHT22;13348;50.984;5.822;2023-10-19T13:45:00;16.20;99.90
24448;DHT22;13348;50.984;5.822;2023-10-19T13:47:28;16.10;99.90
24448;DHT22;13348;50.984;5.822;2023-10-19T13:49:59;16.10;99.90
24448;DHT22;13348;50.984;5.822;2023-10-19T13:52:26;16.10;99.90
24448;DHT22;13348;50.984;5.822;2023-10-19T13:54:52;16.20;99.90
24448;DHT22;13348;50.984;5.822;2023-10-19T13:57:19;16.20;99.90
24448;DHT22;13348;50.984;5.822;2023-10-19T13:59:47;16.30;99.90
24448;DHT22;13348;50.984;5.822;2023-10-19T14:02:14;16.40;99.90
24448;DHT22;13348;50.984;5.822;2023-10-19T14:04:42;16.40;99.90
24448;DHT22;13348;50.984;5.822;2023-10-19T14:07:11;16.30;99.90
24448;DHT22;13348;50.984;5.822;2023-10-19T14:09:38;16.30;99.90
24448;DHT22;13348;50.984;5.822;2023-10-19T14:12:05;16.30;99.90
24448;DHT22;13348;50.984;5.822;2023-10-19T14:14:34;16.30;99.90
24448;DHT22;13348;50.984;5.822;2023-10-19T14:17:01;16.40;99.90
24448;DHT22;13348;50.984;5.822;2023-10-19T14:19:28;16.90;99.90
24448;DHT22;13348;50.984;5.822;2023-10-19T14:21:56;17.30;99.90
24448;DHT22;13348;50.984;5.822;2023-10-19T14:24:23;17.20;99.90
24448;DHT22;13348;50.984;5.822;2023-10-19T14:26:50;17.30;99.90
24448;DHT22;13348;50.984;5.822;2023-10-19T14:29:17;17.50;99.90
24448;DHT22;13348;50.984;5.822;2023-10-19T14:31:44;17.70;99.90
24448;DHT22;13348;50.984;5.822;2023-10-19T14:34:10;18.00;99.90
24448;DHT22;13348;50.984;5.822;2023-10-19T14:36:37;18.10;99.90
24448;DHT22;13348;50.984;5.822;2023-10-19T14:39:06;18.00;99.90
24448;DHT22;13348;50.984;5.822;2023-10-19T14:41:34;18.20;99.90
24448;DHT22;13348;50.984;5.822;2023-10-19T14:44:01;19.00;99.90
24448;DHT22;13348;50.984;5.822;2023-10-19T14:46:30;19.80;99.90
24448;DHT22;13348;50.984;5.822;2023-10-19T14:48:58;19.70;99.90
24448;DHT22;13348;50.984;5.822;2023-10-19T14:51:24;19.70;99.90
24448;DHT22;13348;50.984;5.822;2023-10-19T14:53:51;19.30;99.90
24448;DHT22;13348;50.984;5.822;2023-10-19T14:56:20;18.80;99.90
24448;DHT22;13348;50.984;5.822;2023-10-19T14:58:46;18.40;99.90
24448;DHT22;13348;50.984;5.822;2023-10-19T15:01:13;18.50;99.90
24448;DHT22;13348;50.984;5.822;2023-10-19T15:03:51;18.50;99.90
24448;DHT22;13348;50.984;5.822;2023-10-19T15:06:17;18.70;99.90
24448;DHT22;13348;50.984;5.822;2023-10-19T15:08:45;19.50;99.90
24448;DHT22;13348;50.984;5.822;2023-10-19T15:11:16;20.00;99.90
24448;DHT22;13348;50.984;5.822;2023-10-19T15:13:44;20.10;99.90
24448;DHT22;13348;50.984;5.822;2023-10-19T15:16:12;19.80;99.90
24448;DHT22;13348;50.984;5.822;2023-10-19T15:18:39;20.00;99.90
24448;DHT22;13348;50.984;5.822;2023-10-19T15:21:06;20.30;99.90
24448;DHT22;13348;50.984;5.822;2023-10-19T15:23:34;20.00;99.90
24448;DHT22;13348;50.984;5.822;2023-10-19T15:26:00;19.30;99.90
24448;DHT22;13348;50.984;5.822;2023-10-19T15:28:28;18.60;99.90
24448;DHT22;13348;50.984;5.822;2023-10-19T15:30:59;18.30;99.90
24448;DHT22;13348;50.984;5.822;2023-10-19T15:33:26;18.00;99.90
24448;DHT22;13348;50.984;5.822;2023-10-19T15:35:54;17.80;99.90
24448;DHT22;13348;50.984;5.822;2023-10-19T15:38:21;17.60;99.90
24448;DHT22;13348;50.984;5.822;2023-10-19T15:40:48;17.50;99.90